sensor_id;sensor_type;location;lat;lon;timestamp;temperature;humidity
15036;DHT22;7615;48.574;13.474;2023-04-03T08:19:02;7.30;99.90
15036;DHT22;7615;48.574;13.474;2023-04-03T08:24:44;7.10;99.90
15036;DHT22;7615;48.574;13.474;2023-04-03T08:27:19;7.10;99.90
15036;DHT22;7615;48.574;13.474;2023-04-03T08:30:35;6.20;99.90
15036;DHT22;7615;48.574;13.474;2023-04-03T08:36:53;8.20;99.90
15036;DHT22;7615;48.574;13.474;2023-04-03T08:39:26;5.60;99.90
15036;DHT22;7615;48.574;13.474;2023-04-03T08:42:38;6.40;99.90
15036;DHT22;7615;48.574;13.474;2023-04-03T08:52:25;5.40;99.90
15036;DHT22;7615;48.574;13.474;2023-04-03T09:02:24;5.90;99.90
15036;DHT22;7615;48.574;13.474;2023-04-03T09:04:53;5.90;99.90
15036;DHT22;7615;48.574;13.474;2023-04-03T09:07:30;5.90;99.90
15036;DHT22;7615;48.574;13.474;2023-04-03T09:16:31;6.60;99.90
15036;DHT22;7615;48.574;13.474;2023-04-03T09:19:19;5.70;99.90
15036;DHT22;7615;48.574;13.474;2023-04-03T09:21:52;5.80;99.90
15036;DHT22;7615;48.574;13.474;2023-04-03T09:24:45;5.40;99.90
15036;DHT22;7615;48.574;13.474;2023-04-03T09:37:58;5.90;99.90
15036;DHT22;7615;48.574;13.474;2023-04-03T09:40:42;6.20;99.90
15036;DHT22;7615;48.574;13.474;2023-04-03T09:43:24;5.80;99.90
15036;DHT22;7615;48.574;13.474;2023-04-03T09:45:53;5.70;99.90
15036;DHT22;7615;48.574;13.474;2023-04-03T09:48:22;5.70;99.90
15036;DHT22;7615;48.574;13.474;2023-04-03T09:51:01;5.70;99.90
15036;DHT22;7615;48.574;13.474;2023-04-03T09:56:53;5.60;99.90
15036;DHT22;7615;48.574;13.474;2023-04-03T10:02:59;6.00;99.90
15036;DHT22;7615;48.574;13.474;2023-04-03T10:05:33;6.30;99.90
15036;DHT22;7615;48.574;13.474;2023-04-03T10:08:23;6.00;99.90
15036;DHT22;7615;48.574;13.474;2023-04-03T10:11:09;6.10;99.90
15036;DHT22;7615;48.574;13.474;2023-04-03T10:35:44;6.50;99.90
15036;DHT22;7615;48.574;13.474;2023-04-03T10:38:29;5.90;99.90
15036;DHT22;7615;48.574;13.474;2023-04-03T10:43:52;6.20;99.90
15036;DHT22;7615;48.574;13.474;2023-04-03T10:46:27;6.10;99.90
15036;DHT22;7615;48.574;13.474;2023-04-03T10:49:05;6.20;99.90
15036;DHT22;7615;48.574;13.474;2023-04-03T10:51:43;6.10;99.90
15036;DHT22;7615;48.574;13.474;2023-04-03T10:54:14;6.50;99.90
15036;DHT22;7615;48.574;13.474;2023-04-03T10:56:50;6.60;99.90
15036;DHT22;7615;48.574;13.474;2023-04-03T10:59:23;6.90;99.90
15036;DHT22;7615;48.574;13.474;2023-04-03T11:03:38;6.80;99.90
15036;DHT22;7615;48.574;13.474;2023-04-03T11:08:59;6.40;99.90
15036;DHT22;7615;48.574;13.474;2023-04-03T11:11:43;6.10;99.90
15036;DHT22;7615;48.574;13.474;2023-04-03T11:14:18;6.10;99.90
15036;DHT22;7615;48.574;13.474;2023-04-03T11:16:58;6.20;99.90
15036;DHT22;7615;48.574;13.474;2023-04-03T11:19:35;6.50;99.90
15036;DHT22;7615;48.574;13.474;2023-04-03T11:22:12;6.70;99.90
15036;DHT22;7615;48.574;13.474;2023-04-03T11:24:50;6.80;99.90
15036;DHT22;7615;48.574;13.474;2023-04-03T11:27:25;6.40;99.90
15036;DHT22;7615;48.574;13.474;2023-04-03T11:33:42;6.10;99.90
15036;DHT22;7615;48.574;13.474;2023-04-03T11:36:21;6.10;99.90
15036;DHT22;7615;48.574;13.474;2023-04-03T11:38:55;6.60;99.90
15036;DHT22;7615;48.574;13.474;2023-04-03T11:41:30;6.30;99.90
15036;DHT22;7615;48.574;13.474;2023-04-03T11:44:02;6.20;99.90
15036;DHT22;7615;48.574;13.474;2023-04-03T11:53:25;6.90;99.90
15036;DHT22;7615;48.574;13.474;2023-04-03T11:59:22;6.80;99.90
15036;DHT22;7615;48.574;13.474;2023-04-03T12:05:29;5.60;99.90
15036;DHT22;7615;48.574;13.474;2023-04-03T12:13:15;5.80;99.90
15036;DHT22;7615;48.574;13.474;2023-04-03T12:18:44;6.50;99.90
15036;DHT22;7615;48.574;13.474;2023-04-03T12:24:44;7.10;99.90
15036;DHT22;7615;48.574;13.474;2023-04-03T12:27:38;7.60;99.90
15036;DHT22;7615;48.574;13.474;2023-04-03T12:30:16;8.20;99.90
15036;DHT22;7615;48.574;13.474;2023-04-03T12:32:57;7.80;99.90
15036;DHT22;7615;48.574;13.474;2023-04-03T12:44:40;7.00;99.90
15036;DHT22;7615;48.574;13.474;2023-04-03T12:47:24;7.20;99.90
15036;DHT22;7615;48.574;13.474;2023-04-03T12:49:54;7.50;99.90
15036;DHT22;7615;48.574;13.474;2023-04-03T12:52:32;7.60;99.90
15036;DHT22;7615;48.574;13.474;2023-04-03T12:55:02;8.00;99.90
15036;DHT22;7615;48.574;13.474;2023-04-03T12:57:43;8.00;99.90
15036;DHT22;7615;48.574;13.474;2023-04-03T13:00:37;7.80;99.20
15036;DHT22;7615;48.574;13.474;2023-04-03T13:03:06;7.70;99.50
15036;DHT22;7615;48.574;13.474;2023-04-03T13:05:47;7.70;99.90
15036;DHT22;7615;48.574;13.474;2023-04-03T13:08:20;7.70;99.90
15036;DHT22;7615;48.574;13.474;2023-04-03T13:10:52;7.50;99.90
15036;DHT22;7615;48.574;13.474;2023-04-03T13:13:25;7.40;99.90
15036;DHT22;7615;48.574;13.474;2023-04-03T13:15:54;7.40;99.40
15036;DHT22;7615;48.574;13.474;2023-04-03T13:18:25;7.50;99.90
15036;DHT22;7615;48.574;13.474;2023-04-03T13:21:03;7.60;99.80
15036;DHT22;7615;48.574;13.474;2023-04-03T13:23:33;7.60;99.60
15036;DHT22;7615;48.574;13.474;2023-04-03T13:26:03;7.10;99.90
15036;DHT22;7615;48.574;13.474;2023-04-03T13:28:32;7.00;99.90
15036;DHT22;7615;48.574;13.474;2023-04-03T13:31:05;7.00;99.90
15036;DHT22;7615;48.574;13.474;2023-04-03T13:33:36;7.50;99.90
15036;DHT22;7615;48.574;13.474;2023-04-03T13:36:08;6.90;99.90
15036;DHT22;7615;48.574;13.474;2023-04-03T13:43:53;6.30;99.90
15036;DHT22;7615;48.574;13.474;2023-04-03T13:46:36;6.20;99.90
15036;DHT22;7615;48.574;13.474;2023-04-03T13:49:21;7.70;99.90
15036;DHT22;7615;48.574;13.474;2023-04-03T13:51:49;7.20;99.90
15036;DHT22;7615;48.574;13.474;2023-04-03T13:54:21;8.10;99.90
15036;DHT22;7615;48.574;13.474;2023-04-03T13:56:53;7.20;99.90
15036;DHT22;7615;48.574;13.474;2023-04-03T13:59:25;7.00;99.90
15036;DHT22;7615;48.574;13.474;2023-04-03T14:02:13;7.90;99.90
15036;DHT22;7615;48.574;13.474;2023-04-03T14:04:52;7.40;99.90
15036;DHT22;7615;48.574;13.474;2023-04-03T14:07:24;6.70;99.90
15036;DHT22;7615;48.574;13.474;2023-04-03T14:10:02;7.00;99.90
15036;DHT22;7615;48.574;13.474;2023-04-03T14:12:48;8.00;99.90
15036;DHT22;7615;48.574;13.474;2023-04-03T14:15:22;6.90;99.90
15036;DHT22;7615;48.574;13.474;2023-04-03T14:18:14;7.10;99.90
15036;DHT22;7615;48.574;13.474;2023-04-03T14:20:49;6.70;99.90
15036;DHT22;7615;48.574;13.474;2023-04-03T14:26:09;6.90;99.90
15036;DHT22;7615;48.574;13.474;2023-04-03T14:28:43;8.00;99.90
15036;DHT22;7615;48.574;13.474;2023-04-03T14:31:16;7.10;99.90
15036;DHT22;7615;48.574;13.474;2023-04-03T14:33:46;6.90;99.90
15036;DHT22;7615;48.574;13.474;2023-04-03T14:36:14;6.80;99.90
15036;DHT22;7615;48.574;13.474;2023-04-03T14:38:44;6.90;99.90
15036;DHT22;7615;48.574;13.474;2023-04-03T14:41:13;7.80;99.90
15036;DHT22;7615;48.574;13.474;2023-04-03T14:43:41;7.10;99.90
15036;DHT22;7615;48.574;13.474;2023-04-03T14:46:13;8.20;99.90
15036;DHT22;7615;48.574;13.474;2023-04-03T14:48:41;7.20;99.90
15036;DHT22;7615;48.574;13.474;2023-04-03T14:51:12;6.70;99.90
15036;DHT22;7615;48.574;13.474;2023-04-03T14:53:41;7.20;99.90
15036;DHT22;7615;48.574;13.474;2023-04-03T14:56:13;6.60;99.90
15036;DHT22;7615;48.574;13.474;2023-04-03T14:58:41;7.20;99.90
15036;DHT22;7615;48.574;13.474;2023-04-03T15:01:10;6.20;99.90
15036;DHT22;7615;48.574;13.474;2023-04-03T15:03:39;6.50;99.90
15036;DHT22;7615;48.574;13.474;2023-04-03T15:14:43;6.40;99.90
15036;DHT22;7615;48.574;13.474;2023-04-03T15:23:03;6.00;99.90
15036;DHT22;7615;48.574;13.474;2023-04-03T15:25:33;5.60;99.90
15036;DHT22;7615;48.574;13.474;2023-04-03T15:28:04;6.70;99.90
15036;DHT22;7615;48.574;13.474;2023-04-03T15:30:51;6.30;99.90
15036;DHT22;7615;48.574;13.474;2023-04-03T15:33:27;6.10;99.90
15036;DHT22;7615;48.574;13.474;2023-04-03T15:36:13;7.20;99.90
15036;DHT22;7615;48.574;13.474;2023-04-03T15:38:57;6.90;99.90
15036;DHT22;7615;48.574;13.474;2023-04-03T15:41:25;6.00;99.90
15036;DHT22;7615;48.574;13.474;2023-04-03T15:43:52;7.10;99.90
15036;DHT22;7615;48.574;13.474;2023-04-03T15:46:21;6.20;99.90
15036;DHT22;7615;48.574;13.474;2023-04-03T15:48:50;6.20;99.90
15036;DHT22;7615;48.574;13.474;2023-04-03T15:51:21;6.20;99.90
15036;DHT22;7615;48.574;13.474;2023-04-03T15:53:55;6.10;99.90
15036;DHT22;7615;48.574;13.474;2023-04-03T15:59:34;5.80;99.90
15036;DHT22;7615;48.574;13.474;2023-04-03T16:02:10;5.00;99.90
15036;DHT22;7615;48.574;13.474;2023-04-03T16:08:14;5.90;99.90
15036;DHT22;7615;48.574;13.474;2023-04-03T16:10:42;6.10;99.90
15036;DHT22;7615;48.574;13.474;2023-04-03T16:13:10;5.90;99.90
15036;DHT22;7615;48.574;13.474;2023-04-03T16:15:39;6.40;99.90
15036;DHT22;7615;48.574;13.474;2023-04-03T16:18:08;5.90;99.90
15036;DHT22;7615;48.574;13.474;2023-04-03T16:20:41;6.30;99.90
15036;DHT22;7615;48.574;13.474;2023-04-03T16:23:09;5.80;99.90
15036;DHT22;7615;48.574;13.474;2023-04-03T16:25:37;5.90;99.90
15036;DHT22;7615;48.574;13.474;2023-04-03T16:28:07;6.00;99.90
15036;DHT22;7615;48.574;13.474;2023-04-03T16:30:34;6.10;99.90
15036;DHT22;7615;48.574;13.474;2023-04-03T16:33:03;6.00;99.90
15036;DHT22;7615;48.574;13.474;2023-04-03T16:35:32;6.10;99.90
15036;DHT22;7615;48.574;13.474;2023-04-03T16:37:59;6.10;99.90
15036;DHT22;7615;48.574;13.474;2023-04-03T16:40:27;6.10;99.90
15036;DHT22;7615;48.574;13.474;2023-04-03T16:42:54;6.10;99.90
15036;DHT22;7615;48.574;13.474;2023-04-03T16:45:22;6.10;99.90
15036;DHT22;7615;48.574;13.474;2023-04-03T16:47:58;5.90;99.90
15036;DHT22;7615;48.574;13.474;2023-04-03T16:50:25;5.60;99.90
15036;DHT22;7615;48.574;13.474;2023-04-03T16:52:54;5.60;99.90
15036;DHT22;7615;48.574;13.474;2023-04-03T16:55:22;5.70;99.90
15036;DHT22;7615;48.574;13.474;2023-04-03T16:57:50;5.80;99.90
15036;DHT22;7615;48.574;13.474;2023-04-03T17:00:17;6.00;99.90
15036;DHT22;7615;48.574;13.474;2023-04-03T17:02:45;6.00;99.90
15036;DHT22;7615;48.574;13.474;2023-04-03T17:05:12;5.70;99.90
15036;DHT22;7615;48.574;13.474;2023-04-03T17:07:39;5.80;99.90
15036;DHT22;7615;48.574;13.474;2023-04-03T17:10:09;5.70;99.90
15036;DHT22;7615;48.574;13.474;2023-04-03T17:12:37;5.70;99.90
15036;DHT22;7615;48.574;13.474;2023-04-03T17:15:07;5.40;99.90
15036;DHT22;7615;48.574;13.474;2023-04-03T17:17:35;5.50;99.90
15036;DHT22;7615;48.574;13.474;2023-04-03T17:20:04;5.10;99.90
15036;DHT22;7615;48.574;13.474;2023-04-03T17:22:35;5.10;99.90
15036;DHT22;7615;48.574;13.474;2023-04-03T17:25:03;5.10;99.90
15036;DHT22;7615;48.574;13.474;2023-04-03T17:27:33;5.10;99.90
15036;DHT22;7615;48.574;13.474;2023-04-03T17:30:00;5.00;99.90
15036;DHT22;7615;48.574;13.474;2023-04-03T17:32:50;5.10;99.90
15036;DHT22;7615;48.574;13.474;2023-04-03T17:35:17;5.10;99.90
15036;DHT22;7615;48.574;13.474;2023-04-03T17:37:50;5.10;99.90
15036;DHT22;7615;48.574;13.474;2023-04-03T17:40:18;5.00;99.90
15036;DHT22;7615;48.574;13.474;2023-04-03T17:42:50;4.90;99.90
15036;DHT22;7615;48.574;13.474;2023-04-03T17:45:18;4.80;99.90
15036;DHT22;7615;48.574;13.474;2023-04-03T17:47:45;4.80;99.90
15036;DHT22;7615;48.574;13.474;2023-04-03T17:50:14;4.70;99.90
15036;DHT22;7615;48.574;13.474;2023-04-03T17:52:42;4.60;99.90
15036;DHT22;7615;48.574;13.474;2023-04-03T17:55:09;4.60;99.90
15036;DHT22;7615;48.574;13.474;2023-04-03T17:57:37;4.70;99.90
15036;DHT22;7615;48.574;13.474;2023-04-03T18:00:08;4.70;99.90
15036;DHT22;7615;48.574;13.474;2023-04-03T18:02:36;4.80;99.90
15036;DHT22;7615;48.574;13.474;2023-04-03T18:05:04;4.80;99.90
15036;DHT22;7615;48.574;13.474;2023-04-03T18:07:31;4.60;99.90
15036;DHT22;7615;48.574;13.474;2023-04-03T18:10:02;4.60;99.90
15036;DHT22;7615;48.574;13.474;2023-04-03T18:12:31;4.50;99.90
15036;DHT22;7615;48.574;13.474;2023-04-03T18:14:59;3.90;99.90
15036;DHT22;7615;48.574;13.474;2023-04-03T18:17:31;4.50;99.90
15036;DHT22;7615;48.574;13.474;2023-04-03T18:19:58;4.50;99.90
15036;DHT22;7615;48.574;13.474;2023-04-03T18:22:42;4.60;99.90
15036;DHT22;7615;48.574;13.474;2023-04-03T18:25:10;4.60;99.90
15036;DHT22;7615;48.574;13.474;2023-04-03T18:27:44;4.60;99.90
15036;DHT22;7615;48.574;13.474;2023-04-03T18:30:14;4.70;99.90
15036;DHT22;7615;48.574;13.474;2023-04-03T18:32:44;4.70;99.90
15036;DHT22;7615;48.574;13.474;2023-04-03T18:35:12;4.60;99.90
15036;DHT22;7615;48.574;13.474;2023-04-03T18:37:42;4.60;99.90
15036;DHT22;7615;48.574;13.474;2023-04-03T18:40:12;4.60;99.90
15036;DHT22;7615;48.574;13.474;2023-04-03T18:42:51;4.60;99.90
15036;DHT22;7615;48.574;13.474;2023-04-03T18:45:39;4.60;99.90
15036;DHT22;7615;48.574;13.474;2023-04-03T18:51:42;4.40;99.90
15036;DHT22;7615;48.574;13.474;2023-04-03T18:54:47;4.40;99.90
15036;DHT22;7615;48.574;13.474;2023-04-03T19:00:19;4.00;99.90
15036;DHT22;7615;48.574;13.474;2023-04-03T19:02:47;3.90;99.90
15036;DHT22;7615;48.574;13.474;2023-04-03T19:05:16;3.90;99.90
15036;DHT22;7615;48.574;13.474;2023-04-03T19:08:11;3.90;99.90
15036;DHT22;7615;48.574;13.474;2023-04-03T19:10:53;3.90;99.90
15036;DHT22;7615;48.574;13.474;2023-04-03T19:24:01;4.20;99.90
15036;DHT22;7615;48.574;13.474;2023-04-03T19:29:59;4.00;99.90
15036;DHT22;7615;48.574;13.474;2023-04-03T19:32:34;3.90;99.90
15036;DHT22;7615;48.574;13.474;2023-04-03T19:35:21;3.90;99.90
15036;DHT22;7615;48.574;13.474;2023-04-03T19:38:19;3.90;99.90
15036;DHT22;7615;48.574;13.474;2023-04-03T19:40:53;4.00;99.90
15036;DHT22;7615;48.574;13.474;2023-04-03T19:43:21;4.00;99.90
15036;DHT22;7615;48.574;13.474;2023-04-03T19:45:51;4.00;99.90
15036;DHT22;7615;48.574;13.474;2023-04-03T19:55:23;4.00;99.90
15036;DHT22;7615;48.574;13.474;2023-04-03T19:58:04;4.00;99.90
15036;DHT22;7615;48.574;13.474;2023-04-03T20:00:41;3.90;99.90
15036;DHT22;7615;48.574;13.474;2023-04-03T20:03:08;3.90;99.90
15036;DHT22;7615;48.574;13.474;2023-04-03T20:05:36;3.80;99.90
15036;DHT22;7615;48.574;13.474;2023-04-03T20:08:07;3.80;99.90
15036;DHT22;7615;48.574;13.474;2023-04-03T20:10:36;3.80;99.90
15036;DHT22;7615;48.574;13.474;2023-04-03T20:13:28;3.70;99.90
15036;DHT22;7615;48.574;13.474;2023-04-03T20:16:01;3.60;99.90
15036;DHT22;7615;48.574;13.474;2023-04-03T20:24:58;3.80;99.90
15036;DHT22;7615;48.574;13.474;2023-04-03T20:44:37;3.50;99.90
15036;DHT22;7615;48.574;13.474;2023-04-03T20:47:18;3.60;99.90
15036;DHT22;7615;48.574;13.474;2023-04-03T20:49:45;3.60;99.90
15036;DHT22;7615;48.574;13.474;2023-04-03T20:52:13;3.60;99.90
15036;DHT22;7615;48.574;13.474;2023-04-03T20:54:40;3.60;99.90
15036;DHT22;7615;48.574;13.474;2023-04-03T20:57:07;3.70;99.90
15036;DHT22;7615;48.574;13.474;2023-04-03T23:55:32;4.70;99.90
15036;DHT22;7615;48.574;13.474;2023-04-03T23:58:06;3.60;99.90
